Westerlo, NY (12193)

6:31 PM EDT on August 04, 2015 (GMT -0400)
Main Street | | Change Station
CLOSE
Current Station
Personal Weather Station
Location: Westerlo, NY
Elevation: 1178 ft
Nearby Weather Stations

Elev 1178 ft 42.51 °N, 74.05 °W | Updated 7 minutes ago

Mostly Cloudy
Mostly Cloudy
79.5 °F
Feels Like 81 °F
N
3.2
Wind Variable Wind from NE

Today
High -- | Low -- °F
--% Chance of Precip.
Yesterday
High -- | Low -- °F
Precip. -- in
5:51 AM 8:12 PM
Waning Gibbous, 74% visible
Pressure 29.85 in
Visibility 10.0 miles
Clouds Few 4700 ft
Few 7000 ft
Mostly Cloudy 11000 ft
Mostly Cloudy 14000 ft
Heat Index 81 °F
Dew Point 63 °F
Humidity 58%
Rainfall 0.05 in
Snow Depth Not available.
UV 1 out of 12
Pollen 7.40 out of 12
Air Quality Not available.
Flu Activity Not available.
METAR KALB 042151Z 29008KT 10SM FEW047 FEW070 BKN110 BKN140 25/14 A2985 RMK AO2 RAB06E26 SLP108 P0000 T02500144

More Conditions Fewer Conditions

Pressure 29.85 in
Visibility 10.0 miles
Clouds Few 4700 ft
Few 7000 ft
Mostly Cloudy 11000 ft
Mostly Cloudy 14000 ft
Heat Index 81 °F
Dew Point 63 °F
Humidity 58%
Rainfall 0.05 in
Snow Depth Not available.
UV 1 out of 12
Pollen 7.40 out of 12
Air Quality Not available.
Flu Activity Not available.
METAR KALB 042151Z 29008KT 10SM FEW047 FEW070 BKN110 BKN140 25/14 A2985 RMK AO2 RAB06E26 SLP108 P0000 T02500144

More Conditions Fewer Conditions

10-Day Weather Forecast

×

Almanac

Astronomy

Aug. 04, 2015 Rise Set
Actual Time
Civil Twilight
Nautical Twilight
Astronomical Twilight
Moon
Length of Visible Light
Length of Day
Tomorrow will be .
, % of the Moon is Illuminated

Today's Extremes

State Highs State Lows

Community

WunderPhotos

Upload Photos

1,844,007 photos uploaded!

WunderBlogs® & News

Nearby

Air Quality

  Air Quality AQ Index Pollutant
Not available.

Snow Depth

Station Depth Elevation

Earthquake Activity

City Distance Mag. Time & Date
Minimum magnitude displayed is 2.5.

Coastal Water Temperatures

Place Temperature

Stations

Nearby Weather Stations

Station Location Temp. Windchill Dew Point Humidity Wind Precip. Elev Updated Type